Time;durP1;ratioP1;P1;durP2;ratioP2;P2;SDS_P1;SDS_P2;PMS_P1;PMS_P2;Temp;Humidity;BMP_temperature;BMP_pressure;BME280_temperature;BME280_humidity;BME280_pressure;Samples;Min_cycle;Max_cycle;Signal;HPM_P1;HPM_P2
2021/06/29 00:02:09;;;;;;;8.88;7.68;;;22.60;99.90;;;;;;5061983;28;20582;-77
2021/06/29 00:04:37;;;;;;;10.77;7.50;;;22.60;99.90;;;;;;5062538;28;20237;-77
2021/06/29 00:07:05;;;;;;;14.13;7.88;;;22.60;99.90;;;;;;5075747;28;20224;-77
2021/06/29 00:09:32;;;;;;;9.43;7.85;;;22.60;99.90;;;;;;5080996;28;20198;-77
2021/06/29 00:11:59;;;;;;;10.45;8.18;;;22.60;99.90;;;;;;5080904;28;20230;-76
2021/06/29 00:14:26;;;;;;;9.35;8.40;;;22.60;99.90;;;;;;5068194;28;20220;-77
2021/06/29 00:16:53;;;;;;;10.32;8.07;;;22.60;99.90;;;;;;5082767;28;20208;-77
2021/06/29 00:19:20;;;;;;;10.48;7.93;;;22.60;99.90;;;;;;5076527;28;20248;-77
2021/06/29 00:21:49;;;;;;;8.07;7.28;;;22.60;99.90;;;;;;5075419;28;20219;-77
2021/06/29 00:24:16;;;;;;;8.07;7.25;;;22.50;99.90;;;;;;5080399;28;20192;-77
2021/06/29 00:26:43;;;;;;;9.30;7.03;;;22.50;99.90;;;;;;5075618;28;20233;-77
2021/06/29 00:29:10;;;;;;;10.15;8.10;;;22.50;99.90;;;;;;5071372;28;20205;-77
2021/06/29 00:31:37;;;;;;;7.90;7.20;;;22.50;99.90;;;;;;5074393;28;20239;-77
2021/06/29 00:34:04;;;;;;;9.05;8.13;;;22.40;99.90;;;;;;5073572;28;20224;-77
2021/06/29 00:36:31;;;;;;;9.38;8.48;;;22.40;99.90;;;;;;5081288;28;20231;-76
2021/06/29 00:38:59;;;;;;;7.70;7.00;;;22.40;99.90;;;;;;5073542;28;20206;-77
2021/06/29 00:41:26;;;;;;;9.30;8.07;;;22.40;99.90;;;;;;5074305;28;20219;-77
2021/06/29 00:43:54;;;;;;;9.15;8.25;;;22.30;99.90;;;;;;5071043;28;20197;-77
2021/06/29 00:46:21;;;;;;;12.57;7.65;;;22.30;99.90;;;;;;5077018;28;20194;-77
2021/06/29 00:48:49;;;;;;;9.57;8.05;;;22.30;99.90;;;;;;5072931;28;20234;-77
2021/06/29 00:51:17;;;;;;;9.95;9.00;;;22.30;99.90;;;;;;5082086;28;20202;-77
2021/06/29 00:53:45;;;;;;;10.00;8.80;;;22.30;99.90;;;;;;5074859;28;20197;-77
2021/06/29 00:56:14;;;;;;;9.00;8.10;;;22.30;99.90;;;;;;5072874;28;20227;-77
2021/06/29 00:58:42;;;;;;;8.20;7.30;;;22.30;99.90;;;;;;5071148;28;20232;-77
2021/06/29 01:01:22;;;;;;;10.27;8.77;;;22.40;99.90;;;;;;5078857;28;20196;-76
2021/06/29 01:12:04;;;;;;;9.80;8.80;;;22.40;99.90;;;;;;5072867;28;20428;-77
2021/06/29 01:14:38;;;;;;;9.40;8.50;;;22.40;99.90;;;;;;5072583;28;20204;-77
2021/06/29 01:19:47;;;;;;;12.93;9.40;;;22.40;99.90;;;;;;5077593;28;20609;-77
2021/06/29 01:22:16;;;;;;;12.20;9.95;;;22.40;99.90;;;;;;5078031;28;20205;-77
2021/06/29 01:24:48;;;;;;;8.27;7.40;;;22.30;99.90;;;;;;5079790;28;20197;-76
2021/06/29 01:27:29;;;;;;;14.13;6.50;;;22.20;99.90;;;;;;5076320;28;20218;-77
2021/06/29 01:32:52;;;;;;;10.00;9.00;;;21.40;99.90;;;;;;5024729;28;20207;-75
2021/06/29 01:35:19;;;;;;;10.77;9.68;;;21.00;99.90;;;;;;5027576;28;20207;-76
2021/06/29 01:37:50;;;;;;;12.68;9.00;;;20.90;99.90;;;;;;5034220;28;20205;-77
2021/06/29 01:40:19;;;;;;;10.80;9.40;;;20.90;99.90;;;;;;5032610;28;20197;-76
2021/06/29 01:42:53;;;;;;;9.18;8.27;;;20.90;99.90;;;;;;5033818;28;20209;-77
2021/06/29 01:45:20;;;;;;;8.85;7.30;;;21.00;99.90;;;;;;5026927;28;20678;-76
2021/06/29 01:47:55;;;;;;;6.93;6.13;;;21.00;99.90;;;;;;5028908;28;20219;-76
2021/06/29 01:53:05;;;;;;;5.20;4.70;;;21.00;99.90;;;;;;5027199;28;20201;-77
2021/06/29 01:55:32;;;;;;;5.80;4.70;;;20.90;99.90;;;;;;5042246;28;20232;-77
2021/06/29 01:57:59;;;;;;;6.93;5.13;;;20.80;99.90;;;;;;5030916;28;20249;-77
2021/06/29 02:00:27;;;;;;;6.93;6.30;;;20.80;99.90;;;;;;5032385;28;20225;-77
2021/06/29 02:02:54;;;;;;;6.20;5.30;;;20.80;99.90;;;;;;5026168;28;20234;-77
2021/06/29 02:05:20;;;;;;;6.40;5.45;;;20.80;99.90;;;;;;5027689;28;20210;-77
2021/06/29 02:07:47;;;;;;;7.75;5.47;;;20.80;99.90;;;;;;5054892;28;20225;-77
2021/06/29 02:10:17;;;;;;;8.27;6.07;;;20.90;99.90;;;;;;5075832;28;20204;-77
2021/06/29 02:12:45;;;;;;;9.40;5.90;;;20.90;99.90;;;;;;5079003;28;20224;-77
2021/06/29 02:15:13;;;;;;;8.98;6.93;;;21.00;99.90;;;;;;5078476;28;20193;-77
2021/06/29 02:17:40;;;;;;;10.30;7.78;;;21.00;99.90;;;;;;5072574;28;20204;-77
2021/06/29 02:20:09;;;;;;;8.82;7.18;;;21.00;99.90;;;;;;5073437;28;20200;-77
2021/06/29 02:22:36;;;;;;;12.35;8.25;;;21.00;99.90;;;;;;5069856;28;20204;-77
2021/06/29 02:25:04;;;;;;;8.30;7.40;;;20.90;99.90;;;;;;5074745;28;20197;-77
2021/06/29 02:27:33;;;;;;;8.35;7.22;;;21.00;99.90;;;;;;5077529;28;20233;-77
2021/06/29 02:30:00;;;;;;;9.18;8.05;;;20.90;99.90;;;;;;5069497;28;20278;-77
2021/06/29 02:32:27;;;;;;;8.68;7.32;;;21.00;99.90;;;;;;5066050;28;20224;-77
2021/06/29 02:34:54;;;;;;;10.05;7.80;;;21.00;99.90;;;;;;5064327;28;20198;-77
2021/06/29 02:37:21;;;;;;;12.52;8.82;;;20.90;99.90;;;;;;5075217;28;20201;-77
2021/06/29 02:39:48;;;;;;;10.65;8.75;;;20.90;99.90;;;;;;5070961;28;20197;-77
2021/06/29 02:42:18;;;;;;;9.98;8.32;;;20.90;99.90;;;;;;5069634;28;20248;-77
2021/06/29 02:44:47;;;;;;;15.60;8.65;;;20.80;99.90;;;;;;5069063;28;20266;-76
2021/06/29 02:47:16;;;;;;;11.85;8.98;;;20.80;99.90;;;;;;5072420;28;20656;-77
2021/06/29 02:49:44;;;;;;;12.57;8.52;;;20.80;99.90;;;;;;5078583;28;20206;-77
2021/06/29 02:52:11;;;;;;;12.30;8.27;;;20.70;99.90;;;;;;5078397;28;20235;-77
2021/06/29 02:54:38;;;;;;;14.77;8.70;;;20.70;99.90;;;;;;5081082;28;20205;-77
2021/06/29 02:57:05;;;;;;;11.77;8.50;;;20.70;99.90;;;;;;5076401;28;20197;-76
2021/06/29 02:59:32;;;;;;;17.38;8.32;;;20.70;99.90;;;;;;5072670;28;20303;-77
2021/06/29 03:02:01;;;;;;;13.65;8.43;;;20.60;99.90;;;;;;5068208;28;20224;-77
2021/06/29 03:04:27;;;;;;;12.27;9.63;;;20.60;99.90;;;;;;5076420;28;20224;-77
2021/06/29 03:06:54;;;;;;;10.50;8.57;;;20.60;99.90;;;;;;5085051;28;20201;-77
2021/06/29 03:09:21;;;;;;;11.88;9.00;;;20.50;99.90;;;;;;5073996;28;20233;-77
2021/06/29 03:11:48;;;;;;;13.18;8.95;;;20.50;99.90;;;;;;5073088;28;20618;-77
2021/06/29 03:14:15;;;;;;;13.65;9.40;;;20.50;99.90;;;;;;5074804;28;20201;-77
2021/06/29 03:16:42;;;;;;;11.95;10.65;;;20.50;99.90;;;;;;5074345;28;20458;-77
2021/06/29 03:19:10;;;;;;;10.90;8.88;;;20.50;99.90;;;;;;5078045;28;20255;-77
2021/06/29 03:21:37;;;;;;;12.82;9.15;;;20.50;99.90;;;;;;5078090;28;20205;-76
2021/06/29 03:24:06;;;;;;;11.05;9.20;;;20.50;99.90;;;;;;5069528;28;20197;-77
2021/06/29 03:26:33;;;;;;;13.45;9.52;;;20.60;99.90;;;;;;5073458;28;20260;-77
2021/06/29 03:29:00;;;;;;;10.90;9.48;;;20.60;99.90;;;;;;5077558;28;20248;-77
2021/06/29 03:31:27;;;;;;;12.57;9.13;;;20.60;99.90;;;;;;5082092;28;20250;-78
2021/06/29 03:33:54;;;;;;;10.98;8.65;;;20.60;99.90;;;;;;5084149;28;20224;-77
2021/06/29 03:36:23;;;;;;;12.15;9.32;;;20.60;99.90;;;;;;5072742;28;20672;-77
2021/06/29 03:38:49;;;;;;;15.10;9.80;;;20.60;99.90;;;;;;5082556;28;20212;-77
2021/06/29 03:41:16;;;;;;;12.10;9.98;;;20.60;99.90;;;;;;5078501;28;20227;-77
2021/06/29 03:43:44;;;;;;;11.13;9.45;;;20.50;99.90;;;;;;5080068;28;20227;-77
2021/06/29 03:46:11;;;;;;;10.27;9.15;;;20.60;99.90;;;;;;5075328;28;20205;-77
2021/06/29 03:48:37;;;;;;;13.05;9.70;;;20.60;99.90;;;;;;5079676;28;20216;-77
2021/06/29 03:51:05;;;;;;;11.00;9.52;;;20.70;99.90;;;;;;5070428;28;20197;-77
2021/06/29 03:53:33;;;;;;;10.85;9.50;;;20.70;99.90;;;;;;5084614;28;20201;-78
2021/06/29 03:56:00;;;;;;;10.80;9.70;;;20.80;99.90;;;;;;5080119;28;20250;-76
2021/06/29 03:58:27;;;;;;;12.10;9.40;;;20.80;99.90;;;;;;5078877;28;20550;-76
2021/06/29 04:00:54;;;;;;;11.77;9.90;;;20.80;99.90;;;;;;5081545;28;20231;-77
2021/06/29 04:03:21;;;;;;;16.10;10.73;;;20.80;99.90;;;;;;5074097;28;20222;-77
2021/06/29 04:05:48;;;;;;;13.35;10.38;;;20.80;99.90;;;;;;5069895;28;20255;-77
2021/06/29 04:08:15;;;;;;;13.15;9.85;;;20.80;99.90;;;;;;5078815;28;20220;-77
2021/06/29 04:10:44;;;;;;;12.88;11.05;;;20.80;99.90;;;;;;5074220;28;20237;-77
2021/06/29 04:13:10;;;;;;;12.40;9.77;;;20.80;99.90;;;;;;5071624;28;20197;-77
2021/06/29 04:15:37;;;;;;;15.40;9.32;;;20.80;99.90;;;;;;5070547;28;20224;-77
2021/06/29 04:18:10;;;;;;;10.18;9.15;;;20.80;99.90;;;;;;5075538;28;20201;-77
2021/06/29 04:20:37;;;;;;;12.00;8.75;;;20.80;99.90;;;;;;5072905;28;20201;-77
2021/06/29 04:23:04;;;;;;;14.27;9.13;;;20.80;99.90;;;;;;5086814;28;20201;-77
2021/06/29 04:25:31;;;;;;;9.38;8.38;;;20.80;99.90;;;;;;5069339;28;20223;-77
2021/06/29 04:27:59;;;;;;;10.02;8.73;;;20.80;99.90;;;;;;5071466;28;20554;-77
2021/06/29 04:30:26;;;;;;;8.77;7.97;;;20.90;99.90;;;;;;5076631;28;20259;-77
2021/06/29 04:32:53;;;;;;;11.00;8.30;;;20.90;99.90;;;;;;5080995;28;20240;-77
2021/06/29 04:35:20;;;;;;;9.73;8.70;;;20.90;99.90;;;;;;5074700;28;20210;-77
2021/06/29 04:37:47;;;;;;;13.93;9.35;;;20.90;99.90;;;;;;5077241;28;20227;-77
2021/06/29 04:40:15;;;;;;;10.98;9.43;;;20.80;99.90;;;;;;5072419;28;20208;-77
2021/06/29 04:42:42;;;;;;;11.70;9.45;;;20.80;99.90;;;;;;5073519;28;20196;-77
2021/06/29 04:45:12;;;;;;;13.20;10.73;;;20.70;99.90;;;;;;5066990;28;20204;-77
2021/06/29 04:47:45;;;;;;;12.32;10.18;;;20.70;99.90;;;;;;5085522;28;20213;-77
2021/06/29 04:50:13;;;;;;;14.85;11.38;;;20.60;99.90;;;;;;5072166;28;20201;-77
2021/06/29 04:52:40;;;;;;;14.52;11.50;;;20.70;99.90;;;;;;5075962;28;20205;-77
2021/06/29 04:55:08;;;;;;;14.82;12.10;;;20.80;99.90;;;;;;5074214;28;20234;-77
2021/06/29 04:57:35;;;;;;;14.02;10.95;;;20.80;99.90;;;;;;5069916;28;20193;-77
2021/06/29 05:00:07;;;;;;;16.90;13.25;;;20.90;99.90;;;;;;5075982;28;20212;-77
2021/06/29 05:02:35;;;;;;;14.82;13.18;;;20.90;99.90;;;;;;5071914;28;20295;-78
2021/06/29 05:05:04;;;;;;;21.70;13.93;;;20.90;99.90;;;;;;5067130;28;20201;-77
2021/06/29 05:07:31;;;;;;;18.50;14.40;;;20.90;99.90;;;;;;5066583;28;20244;-77
2021/06/29 05:09:58;;;;;;;19.13;14.50;;;20.90;99.90;;;;;;5074330;28;20228;-77
2021/06/29 05:12:25;;;;;;;21.05;15.63;;;21.00;99.90;;;;;;5084966;28;20201;-77
2021/06/29 05:14:52;;;;;;;24.27;16.10;;;21.00;99.90;;;;;;5078127;28;20231;-77
2021/06/29 05:17:19;;;;;;;20.75;15.38;;;21.10;99.90;;;;;;5072968;28;20220;-77
2021/06/29 05:19:47;;;;;;;25.02;18.33;;;21.10;99.90;;;;;;5078302;28;20201;-77
2021/06/29 05:22:14;;;;;;;23.98;16.70;;;21.20;99.90;;;;;;5070996;28;20193;-77
2021/06/29 05:24:45;;;;;;;32.95;18.92;;;21.20;99.90;;;;;;5066635;28;20225;-77
2021/06/29 05:29:52;;;;;;;28.17;18.83;;;21.30;99.90;;;;;;5076283;28;20208;-77
2021/06/29 05:32:19;;;;;;;27.75;19.63;;;21.40;99.90;;;;;;5076933;28;20193;-76
2021/06/29 05:34:47;;;;;;;27.95;19.92;;;21.50;99.90;;;;;;5071713;28;20273;-76
2021/06/29 05:37:14;;;;;;;34.85;18.40;;;21.50;99.90;;;;;;5071452;28;20714;-76
2021/06/29 05:39:41;;;;;;;32.53;21.13;;;21.50;99.90;;;;;;5076636;28;20232;-76
2021/06/29 05:42:09;;;;;;;27.95;20.23;;;21.40;99.90;;;;;;5070543;28;20200;-76
2021/06/29 05:44:36;;;;;;;29.45;18.63;;;21.40;99.90;;;;;;5079207;28;20236;-76
2021/06/29 05:47:07;;;;;;;30.13;18.60;;;21.40;99.90;;;;;;5064881;28;20271;-76
2021/06/29 05:49:34;;;;;;;30.15;20.67;;;21.40;99.90;;;;;;5078774;28;20220;-76
2021/06/29 05:52:03;;;;;;;31.30;19.73;;;21.40;99.90;;;;;;5070204;28;20232;-76
2021/06/29 05:54:31;;;;;;;31.25;22.30;;;21.30;99.90;;;;;;5073449;28;20235;-76
2021/06/29 05:56:58;;;;;;;36.47;22.08;;;21.30;99.90;;;;;;5069546;28;20201;-76
2021/06/29 05:59:25;;;;;;;31.95;21.15;;;21.20;99.90;;;;;;5073034;28;20224;-75
2021/06/29 06:01:53;;;;;;;35.25;20.50;;;21.20;99.90;;;;;;5062285;28;20299;-76
2021/06/29 06:04:20;;;;;;;29.35;19.98;;;21.20;99.90;;;;;;5070672;28;20258;-76
2021/06/29 06:06:46;;;;;;;30.10;20.92;;;21.20;99.90;;;;;;5075158;28;20230;-77
2021/06/29 06:09:15;;;;;;;34.42;19.42;;;21.20;99.90;;;;;;5074734;28;20251;-76
2021/06/29 06:11:42;;;;;;;30.05;19.45;;;21.20;99.90;;;;;;5081157;28;20231;-76
2021/06/29 06:14:09;;;;;;;27.73;18.25;;;21.20;99.90;;;;;;5069900;28;20205;-76
2021/06/29 06:16:36;;;;;;;24.08;17.17;;;21.20;99.90;;;;;;5064337;28;20209;-76
2021/06/29 06:19:04;;;;;;;22.30;16.45;;;21.20;99.90;;;;;;5075410;28;20257;-76
2021/06/29 06:21:31;;;;;;;24.95;17.92;;;21.20;99.90;;;;;;5086291;28;20216;-76
2021/06/29 06:23:59;;;;;;;22.27;15.88;;;21.20;99.90;;;;;;5073187;28;20232;-76
2021/06/29 06:26:27;;;;;;;18.17;14.25;;;21.30;99.90;;;;;;5081488;28;20655;-76
2021/06/29 06:28:54;;;;;;;18.23;13.55;;;21.30;99.90;;;;;;5077186;28;20271;-76
2021/06/29 06:31:21;;;;;;;17.65;13.55;;;21.40;99.90;;;;;;5061158;28;20227;-76
2021/06/29 06:33:48;;;;;;;22.00;12.48;;;21.50;99.90;;;;;;5081791;28;20205;-76
2021/06/29 06:36:15;;;;;;;17.77;11.95;;;21.70;99.90;;;;;;5081409;28;20213;-76
2021/06/29 06:38:42;;;;;;;15.00;11.25;;;21.90;99.90;;;;;;5073018;28;20201;-76
2021/06/29 06:41:13;;;;;;;20.95;11.43;;;22.00;99.90;;;;;;5078680;28;20638;-76
2021/06/29 06:43:42;;;;;;;11.55;9.90;;;22.20;99.90;;;;;;5085667;28;20239;-76
2021/06/29 06:46:09;;;;;;;10.93;8.95;;;22.30;99.90;;;;;;5085685;28;20192;-76
2021/06/29 06:48:36;;;;;;;10.80;9.13;;;22.30;99.90;;;;;;5074681;28;20245;-76
2021/06/29 06:51:03;;;;;;;12.13;7.78;;;22.30;99.90;;;;;;5080605;28;20235;-77
2021/06/29 06:53:30;;;;;;;17.33;7.95;;;22.20;99.90;;;;;;5076268;28;20204;-77
2021/06/29 06:55:58;;;;;;;17.20;9.77;;;22.10;99.90;;;;;;5074924;28;20226;-76
2021/06/29 06:58:26;;;;;;;10.15;8.52;;;22.00;99.90;;;;;;5076737;28;20231;-76
2021/06/29 07:00:55;;;;;;;10.57;8.25;;;22.10;99.90;;;;;;5085241;28;20201;-76
2021/06/29 07:03:22;;;;;;;12.93;9.65;;;22.10;99.90;;;;;;5082779;28;20254;-76
2021/06/29 07:05:49;;;;;;;10.93;8.50;;;22.30;99.90;;;;;;5072970;28;20459;-77
2021/06/29 07:08:16;;;;;;;9.88;7.78;;;22.50;99.90;;;;;;5073274;28;20201;-76
2021/06/29 07:10:43;;;;;;;8.20;7.40;;;22.50;99.90;;;;;;5076345;28;20228;-76
2021/06/29 07:13:11;;;;;;;11.23;6.75;;;22.70;99.90;;;;;;5078629;28;20231;-77
2021/06/29 07:15:37;;;;;;;7.22;6.50;;;22.90;99.90;;;;;;5079515;28;20204;-77
2021/06/29 07:18:06;;;;;;;7.28;6.40;;;23.00;99.90;;;;;;5074757;28;20193;-77
2021/06/29 07:20:33;;;;;;;8.13;6.47;;;22.90;99.90;;;;;;5074737;28;20222;-76
2021/06/29 07:23:00;;;;;;;7.70;6.10;;;22.90;99.90;;;;;;5070189;28;20205;-78
2021/06/29 07:25:27;;;;;;;7.70;6.68;;;22.90;99.90;;;;;;5081196;28;20201;-77
2021/06/29 07:27:54;;;;;;;7.15;5.95;;;22.90;99.90;;;;;;5078941;28;20776;-78
2021/06/29 07:30:22;;;;;;;8.07;6.35;;;22.90;99.90;;;;;;5076151;28;20635;-76
2021/06/29 07:32:53;;;;;;;8.98;7.30;;;23.00;99.90;;;;;;5071448;28;20204;-77
2021/06/29 07:35:23;;;;;;;10.30;7.85;;;23.10;99.90;;;;;;5081721;28;20204;-77
2021/06/29 07:37:52;;;;;;;11.75;7.68;;;23.10;99.90;;;;;;5074727;28;20210;-78
2021/06/29 07:40:22;;;;;;;10.35;7.85;;;23.20;99.90;;;;;;5074183;28;20629;-76
2021/06/29 07:42:50;;;;;;;11.60;8.90;;;23.10;99.90;;;;;;5074718;28;20205;-76
2021/06/29 07:45:18;;;;;;;11.68;8.32;;;23.10;99.90;;;;;;5083467;28;20201;-77
2021/06/29 07:47:44;;;;;;;11.77;9.45;;;23.00;99.90;;;;;;5078076;28;20449;-76
2021/06/29 07:50:12;;;;;;;11.13;8.73;;;23.00;99.90;;;;;;5070270;28;20229;-78
2021/06/29 07:52:40;;;;;;;16.55;10.75;;;22.80;99.90;;;;;;5080804;28;20261;-78
2021/06/29 07:55:08;;;;;;;13.40;11.00;;;22.70;99.90;;;;;;5082376;28;20197;-77
2021/06/29 07:57:35;;;;;;;15.75;11.60;;;22.60;99.90;;;;;;5078934;28;20205;-77
2021/06/29 08:00:03;;;;;;;13.68;11.82;;;22.50;99.90;;;;;;5073573;28;20236;-78
2021/06/29 08:02:30;;;;;;;18.45;11.75;;;22.40;99.90;;;;;;5075178;28;20255;-77
2021/06/29 08:04:57;;;;;;;17.25;10.82;;;22.40;99.90;;;;;;5080810;28;20256;-76
2021/06/29 08:07:24;;;;;;;14.02;11.02;;;22.40;99.90;;;;;;5075349;28;20606;-76
2021/06/29 08:09:52;;;;;;;14.20;10.43;;;22.40;99.90;;;;;;5082293;28;20251;-76
2021/06/29 08:12:20;;;;;;;18.23;12.27;;;22.30;99.90;;;;;;5080504;28;20201;-78
2021/06/29 08:14:47;;;;;;;16.10;12.27;;;22.40;99.90;;;;;;5076932;28;20228;-78
2021/06/29 08:17:14;;;;;;;13.75;11.55;;;22.50;99.90;;;;;;5076011;28;20227;-77
2021/06/29 08:19:41;;;;;;;16.52;11.77;;;22.50;99.90;;;;;;5070065;28;20234;-77
2021/06/29 08:22:08;;;;;;;14.23;11.95;;;22.50;99.90;;;;;;5073774;28;20274;-76
2021/06/29 08:24:35;;;;;;;13.57;11.90;;;22.50;99.90;;;;;;5084637;28;20204;-76
2021/06/29 08:32:57;;;;;;;18.30;13.38;;;22.60;99.90;;;;;;5115482;28;20217;-77
2021/06/29 08:35:26;;;;;;;19.38;14.25;;;22.50;99.90;;;;;;5117466;28;20229;-77
2021/06/29 08:37:53;;;;;;;24.35;16.08;;;22.40;99.90;;;;;;5120997;28;20203;-78
2021/06/29 08:40:21;;;;;;;20.48;15.45;;;22.30;99.90;;;;;;5117983;28;20203;-77
2021/06/29 08:42:48;;;;;;;27.77;17.58;;;22.30;99.90;;;;;;5116021;28;20229;-77
2021/06/29 08:45:17;;;;;;;22.58;15.88;;;22.30;99.90;;;;;;5110557;28;20208;-77
2021/06/29 08:47:44;;;;;;;22.33;16.08;;;22.30;99.90;;;;;;5122259;28;20208;-77
2021/06/29 08:50:13;;;;;;;23.25;16.77;;;22.20;99.90;;;;;;5114719;28;22164;-77
2021/06/29 08:52:41;;;;;;;24.95;16.80;;;22.20;99.90;;;;;;5120087;28;20222;-77
2021/06/29 08:55:10;;;;;;;24.80;17.05;;;22.30;99.90;;;;;;5117308;28;20222;-77
2021/06/29 08:57:38;;;;;;;28.10;18.83;;;22.20;99.90;;;;;;5122334;28;20204;-77
2021/06/29 09:00:07;;;;;;;25.77;19.70;;;22.30;99.90;;;;;;5115286;28;20204;-77
2021/06/29 09:02:38;;;;;;;28.42;19.70;;;22.30;99.90;;;;;;5108206;28;20226;-77
2021/06/29 09:05:18;;;;;;;25.52;19.08;;;22.30;99.90;;;;;;5114028;28;20208;-77
2021/06/29 09:07:53;;;;;;;31.80;20.17;;;22.30;99.90;;;;;;5111173;28;20200;-77
2021/06/29 09:10:19;;;;;;;28.35;20.08;;;22.40;99.90;;;;;;5108944;28;20219;-77
2021/06/29 09:12:48;;;;;;;24.58;19.02;;;22.60;99.90;;;;;;5110584;28;20228;-77
2021/06/29 09:15:24;;;;;;;26.50;19.83;;;22.80;99.90;;;;;;5110240;28;20290;-77
2021/06/29 09:17:54;;;;;;;24.73;18.48;;;22.90;99.90;;;;;;5119296;28;20237;-78
2021/06/29 09:20:27;;;;;;;30.45;21.15;;;23.00;99.90;;;;;;5124974;28;20229;-80
2021/06/29 09:22:56;;;;;;;36.35;21.17;;;23.00;99.90;;;;;;5108910;28;20202;-78
2021/06/29 09:25:34;;;;;;;35.33;22.23;;;23.10;99.90;;;;;;5110817;28;20451;-78
2021/06/29 09:28:02;;;;;;;37.53;23.90;;;23.20;99.90;;;;;;5123363;28;20476;-78
2021/06/29 09:30:32;;;;;;;34.67;23.38;;;23.40;99.90;;;;;;5113903;28;20227;-78
2021/06/29 09:33:02;;;;;;;30.95;21.13;;;23.40;99.90;;;;;;5118102;28;20227;-79
2021/06/29 09:35:30;;;;;;;29.48;19.45;;;23.40;99.90;;;;;;5121029;28;20215;-77
2021/06/29 09:37:58;;;;;;;33.25;20.83;;;23.60;99.90;;;;;;5118706;28;20203;-77
2021/06/29 09:40:29;;;;;;;36.97;24.30;;;23.70;99.90;;;;;;5104404;28;20230;-77
2021/06/29 09:43:09;;;;;;;43.88;26.52;;;23.90;99.90;;;;;;5121826;28;20258;-77
2021/06/29 09:45:40;;;;;;;39.25;25.05;;;24.00;99.90;;;;;;5114891;28;20233;-77
2021/06/29 09:48:10;;;;;;;41.33;27.75;;;24.20;99.90;;;;;;5118286;28;20200;-79
2021/06/29 09:50:47;;;;;;;44.22;27.10;;;24.50;99.90;;;;;;5114237;28;20224;-78
2021/06/29 09:53:25;;;;;;;40.10;26.67;;;24.80;99.90;;;;;;5114597;28;20199;-77
2021/06/29 09:55:53;;;;;;;44.10;29.23;;;24.90;99.90;;;;;;5107586;28;20532;-78
2021/06/29 09:58:28;;;;;;;47.33;30.10;;;24.90;99.90;;;;;;5116441;28;20532;-78
2021/06/29 10:03:55;;;;;;;39.22;28.10;;;25.00;99.90;;;;;;5118096;28;20200;-78
2021/06/29 10:06:24;;;;;;;42.97;26.27;;;24.80;99.90;;;;;;5111687;28;20199;-78
2021/06/29 10:08:53;;;;;;;40.97;25.38;;;24.70;99.90;;;;;;5119424;28;20196;-77
2021/06/29 10:11:24;;;;;;;39.05;25.17;;;24.80;99.90;;;;;;5112353;28;20223;-76
2021/06/29 10:13:54;;;;;;;42.55;26.65;;;24.80;99.90;;;;;;5113276;28;20225;-76
2021/06/29 10:16:23;;;;;;;35.53;23.75;;;24.80;99.90;;;;;;5106855;28;20225;-77
2021/06/29 10:19:02;;;;;;;38.58;25.98;;;24.80;99.90;;;;;;5103262;28;20204;-77
2021/06/29 10:21:33;;;;;;;41.05;24.80;;;24.80;99.90;;;;;;5114766;28;20230;-77
2021/06/29 10:24:02;;;;;;;35.95;23.88;;;24.80;99.90;;;;;;5104797;28;20242;-77
2021/06/29 10:26:32;;;;;;;36.88;22.50;;;24.80;99.90;;;;;;5115146;28;20199;-77
2021/06/29 10:29:00;;;;;;;36.00;22.08;;;24.90;99.90;;;;;;5116489;28;20231;-77
2021/06/29 10:31:29;;;;;;;32.92;22.00;;;25.00;99.90;;;;;;5121121;28;20231;-77
2021/06/29 10:33:59;;;;;;;32.38;22.90;;;25.00;99.90;;;;;;5120705;28;20228;-77
2021/06/29 10:36:29;;;;;;;25.02;17.90;;;25.30;99.90;;;;;;5122143;28;20221;-77
2021/06/29 10:38:58;;;;;;;28.55;18.25;;;25.60;99.90;;;;;;5109532;28;21000;-77
2021/06/29 10:41:32;;;;;;;19.42;14.15;;;25.80;99.90;;;;;;5118893;28;20203;-78
2021/06/29 10:44:00;;;;;;;16.58;12.73;;;26.10;99.90;;;;;;5099716;28;20254;-78
2021/06/29 10:46:43;;;;;;;18.15;13.52;;;26.60;99.90;;;;;;5109430;28;20210;-78
2021/06/29 10:49:35;;;;;;;17.17;12.95;;;27.00;99.90;;;;;;5115362;28;20199;-78
2021/06/29 10:52:05;;;;;;;18.40;13.57;;;27.10;99.90;;;;;;5107304;28;20204;-78
2021/06/29 10:54:55;;;;;;;21.13;14.52;;;27.10;99.90;;;;;;5120552;28;20199;-77
2021/06/29 10:57:26;;;;;;;15.65;12.20;;;26.90;99.90;;;;;;5110411;28;20207;-78
2021/06/29 10:59:58;;;;;;;17.00;12.60;;;26.60;99.90;;;;;;5113265;28;20252;-78
2021/06/29 11:02:31;;;;;;;20.67;13.85;;;26.40;99.90;;;;;;5108169;28;20200;-78
2021/06/29 11:05:00;;;;;;;19.30;13.93;;;26.10;99.90;;;;;;5105756;28;20220;-78
2021/06/29 11:07:47;;;;;;;20.08;13.85;;;26.00;99.90;;;;;;5124310;28;20199;-78
2021/06/29 11:10:28;;;;;;;22.58;13.45;;;26.10;99.90;;;;;;5112483;28;20223;-78
2021/06/29 11:13:00;;;;;;;17.77;13.32;;;26.30;99.90;;;;;;5120474;28;20204;-78
2021/06/29 11:15:43;;;;;;;18.05;12.75;;;26.20;99.90;;;;;;5109823;28;20201;-78
2021/06/29 11:18:11;;;;;;;20.98;12.32;;;26.20;99.90;;;;;;5111804;28;20266;-78
2021/06/29 11:20:41;;;;;;;18.38;12.65;;;26.20;99.90;;;;;;5122285;28;20307;-78
2021/06/29 11:23:10;;;;;;;17.95;13.10;;;26.20;99.90;;;;;;5116404;28;20230;-78
2021/06/29 11:25:47;;;;;;;19.55;12.38;;;26.00;99.90;;;;;;5122207;28;20199;-77
2021/06/29 11:28:18;;;;;;;17.30;12.80;;;25.80;99.90;;;;;;5109823;28;20300;-78
2021/06/29 11:31:02;;;;;;;16.50;11.40;;;25.60;99.90;;;;;;5126737;28;20222;-78
2021/06/29 11:33:47;;;;;;;12.23;10.32;;;25.60;99.90;;;;;;5120704;28;20196;-78
2021/06/29 11:36:51;;;;;;;16.55;10.55;;;25.60;99.90;;;;;;5109488;28;20304;-78
2021/06/29 11:39:56;;;;;;;18.17;13.23;;;25.70;99.90;;;;;;5115818;28;20217;-78
2021/06/29 11:42:25;;;;;;;13.95;11.27;;;25.80;99.90;;;;;;5111717;28;20235;-78
2021/06/29 11:45:04;;;;;;;15.23;10.82;;;25.80;99.90;;;;;;5120069;28;20207;-78
2021/06/29 11:47:39;;;;;;;19.75;13.13;;;26.00;99.90;;;;;;5119882;28;20196;-78
2021/06/29 11:50:18;;;;;;;20.23;14.05;;;26.00;99.90;;;;;;5119241;28;20195;-78
2021/06/29 11:52:45;;;;;;;17.30;12.98;;;25.90;99.90;;;;;;5121500;28;20199;-77
2021/06/29 11:55:17;;;;;;;20.23;12.35;;;25.70;99.90;;;;;;5114627;28;20293;-77
2021/06/29 11:57:50;;;;;;;19.67;12.75;;;25.60;99.90;;;;;;5114254;28;20290;-77
2021/06/29 12:00:21;;;;;;;17.23;12.20;;;25.80;99.90;;;;;;5114637;28;20204;-78
2021/06/29 12:02:50;;;;;;;18.83;13.13;;;26.00;99.90;;;;;;5112996;28;20204;-78
2021/06/29 12:05:19;;;;;;;19.65;14.63;;;26.10;99.90;;;;;;5117827;28;20196;-78
2021/06/29 12:07:47;;;;;;;17.25;11.90;;;26.20;99.90;;;;;;5115305;28;20205;-77
2021/06/29 12:10:17;;;;;;;17.95;11.45;;;26.30;99.90;;;;;;5118867;28;20231;-77
2021/06/29 12:12:46;;;;;;;15.25;11.27;;;26.30;99.90;;;;;;5122380;28;20211;-77
2021/06/29 12:15:17;;;;;;;12.75;10.32;;;26.30;99.90;;;;;;5116673;28;20211;-77
2021/06/29 12:17:48;;;;;;;14.18;9.77;;;26.20;99.90;;;;;;5116235;28;20196;-77
2021/06/29 12:20:17;;;;;;;24.77;11.10;;;26.20;99.90;;;;;;5116470;28;20204;-77
2021/06/29 12:22:46;;;;;;;13.88;10.25;;;26.30;99.90;;;;;;5114960;28;20204;-78
2021/06/29 12:25:22;;;;;;;15.73;10.55;;;26.20;99.90;;;;;;5112288;28;20200;-77
2021/06/29 12:27:53;;;;;;;24.92;11.45;;;26.30;99.90;;;;;;5113370;28;20241;-77
2021/06/29 12:30:26;;;;;;;13.43;10.85;;;26.40;99.90;;;;;;5112028;28;20231;-77
2021/06/29 12:32:53;;;;;;;11.73;9.32;;;26.40;99.90;;;;;;5109116;28;20195;-77
2021/06/29 12:35:22;;;;;;;13.95;11.20;;;26.50;99.90;;;;;;5118010;28;20195;-77
2021/06/29 12:37:57;;;;;;;11.93;9.13;;;26.50;99.90;;;;;;5123604;28;20211;-77
2021/06/29 12:40:26;;;;;;;10.43;8.00;;;26.60;99.90;;;;;;5115878;28;20265;-77
2021/06/29 12:42:54;;;;;;;13.55;7.97;;;26.70;99.90;;;;;;5108370;28;20206;-77
2021/06/29 12:45:22;;;;;;;9.40;8.00;;;26.70;99.90;;;;;;5119104;28;20197;-77
2021/06/29 12:48:01;;;;;;;13.35;9.77;;;26.80;99.90;;;;;;5117872;28;20242;-77
2021/06/29 12:50:29;;;;;;;15.18;10.65;;;26.70;99.90;;;;;;5120465;28;20784;-77
2021/06/29 12:52:56;;;;;;;11.15;9.70;;;26.70;99.90;;;;;;5110222;28;20614;-77
2021/06/29 12:55:26;;;;;;;10.80;8.32;;;26.70;99.90;;;;;;5115985;28;20223;-77
2021/06/29 12:58:10;;;;;;;9.68;8.18;;;26.70;99.90;;;;;;5122262;28;20195;-78
2021/06/29 13:00:48;;;;;;;14.13;9.00;;;26.70;99.90;;;;;;5113280;28;20216;-77
2021/06/29 13:06:09;;;;;;;8.63;6.35;;;26.70;99.90;;;;;;5119694;28;20268;-78
2021/06/29 13:08:36;;;;;;;8.05;6.18;;;26.70;99.90;;;;;;5119908;28;20233;-77
2021/06/29 13:14:01;;;;;;;11.32;8.45;;;26.80;99.90;;;;;;5114112;28;20192;-77
2021/06/29 13:16:29;;;;;;;13.48;8.57;;;26.70;99.90;;;;;;5111880;28;20201;-77
2021/06/29 13:18:58;;;;;;;11.55;7.57;;;26.60;99.90;;;;;;5111677;28;20204;-77